logo
Rechercher aéroport 
image banner adimage banner adimage banner ad
image banner ad

ZBHH - Hohhot/Baita

Situé à Hohhot, China

ICAO - ZBHH, IATA - HET

Données fournies par Airmate  

Information générale

Coordonnées: N40°50'54" E111°49'24"
Élévation : 3556 feet MSL.
 
Voir autres Aéroports à Inner Mongolia Autonomous Region

Données opérationnelles

Special qualification required
Heure actuelle UTC:
Heure actuelle locale:
Météo
METAR: ZBHH 032200Z 07003MPS CAVOK M07/M11 Q1009 NOSIG
TAF: TAF ZBHH 032102Z 0400/0424 23004MPS 9999 FEW040 TX05/0407Z TNM12/0422Z TEMPO 0412/0418 2800 -RASN
Voir NOTAMs / SUP AIP / TFR affectant cet aéroport [VIEW]
Fréquences de communication: [VIEW]

Pistes:

Identifiant RWYQFULongueur (ft)Largeur (ft)SurfaceLDA (ft)
0873°11811148CON
26253°11811148CON

Coordonnées de l'aéroport

Adresse: Hohhot China

Vue satellite de ZBHH